createdAt,value
2018-01-07T00:00:55.661Z,4.6
2018-01-07T00:01:58.436Z,4.6
2018-01-07T00:03:00.929Z,4.7
2018-01-07T00:04:03.426Z,4.6
2018-01-07T00:05:05.922Z,4.6
2018-01-07T00:06:08.982Z,4.7
2018-01-07T00:07:11.486Z,4.7
2018-01-07T00:08:13.972Z,4.7
2018-01-07T00:09:16.460Z,4.6
2018-01-07T00:10:18.973Z,4.7
2018-01-07T00:11:21.447Z,4.6
2018-01-07T00:12:23.944Z,4.6
2018-01-07T00:13:26.718Z,4.7
2018-01-07T00:14:29.210Z,4.6
2018-01-07T00:15:31.701Z,4.6
2018-01-07T00:16:34.198Z,4.6
2018-01-07T00:17:36.674Z,4.7
2018-01-07T00:18:39.178Z,4.7
2018-01-07T00:19:41.668Z,4.6
2018-01-07T00:20:44.160Z,4.6
2018-01-07T00:21:46.657Z,4.6
2018-01-07T00:22:49.142Z,4.6
2018-01-07T00:23:51.633Z,4.6
2018-01-07T00:24:54.428Z,4.6
2018-01-07T00:25:56.897Z,4.5
2018-01-07T00:26:59.398Z,4.6
2018-01-07T00:28:01.930Z,4.6
2018-01-07T00:29:04.424Z,4.7
2018-01-07T00:30:07.208Z,4.6
2018-01-07T00:31:09.700Z,4.7
2018-01-07T00:32:12.176Z,4.6
2018-01-07T00:33:14.678Z,4.6
2018-01-07T00:34:17.168Z,4.6
2018-01-07T00:35:19.658Z,4.5
2018-01-07T00:36:22.133Z,4.6
2018-01-07T00:37:24.628Z,4.6
2018-01-07T00:38:27.116Z,4.6
2018-01-07T00:39:29.613Z,4.6
2018-01-07T00:40:32.096Z,4.7
2018-01-07T00:41:34.593Z,4.6
2018-01-07T00:42:37.083Z,4.6
2018-01-07T00:43:39.877Z,4.6
2018-01-07T00:44:42.366Z,4.6
2018-01-07T00:45:44.846Z,4.6
2018-01-07T00:46:47.336Z,4.6
2018-01-07T00:47:49.823Z,4.6
2018-01-07T00:48:52.307Z,4.5
2018-01-07T00:49:54.807Z,4.5
2018-01-07T00:50:57.286Z,4.6
2018-01-07T00:51:59.783Z,4.7
2018-01-07T00:53:02.275Z,4.7
2018-01-07T00:54:04.764Z,4.6
2018-01-07T00:55:07.539Z,4.6
2018-01-07T00:56:10.037Z,4.7
2018-01-07T00:57:12.823Z,4.6
2018-01-07T00:58:15.338Z,4.5
2018-01-07T00:59:18.391Z,4.6
2018-01-07T01:00:20.871Z,4.5
2018-01-07T01:01:23.366Z,4.6
2018-01-07T01:02:25.851Z,4.5
2018-01-07T01:03:28.342Z,4.6
2018-01-07T01:04:31.414Z,4.6
2018-01-07T01:05:33.904Z,4.6
2018-01-07T01:06:36.395Z,4.5
2018-01-07T01:07:38.869Z,4.6
2018-01-07T01:08:41.369Z,4.6
2018-01-07T01:09:44.439Z,4.6
2018-01-07T01:10:47.222Z,4.6
2018-01-07T01:11:49.719Z,4.6
2018-01-07T01:12:52.199Z,4.6
2018-01-07T01:13:54.687Z,4.6
2018-01-07T01:14:57.472Z,4.5
2018-01-07T01:15:59.948Z,4.6
2018-01-07T01:17:02.447Z,4.6
2018-01-07T01:18:04.937Z,4.5
2018-01-07T01:19:07.712Z,4.5
2018-01-07T01:20:10.202Z,4.6
2018-01-07T01:21:12.695Z,4.7
2018-01-07T01:22:15.477Z,4.6
2018-01-07T01:23:17.977Z,4.6
2018-01-07T01:24:20.462Z,4.6
2018-01-07T01:25:22.953Z,4.6
2018-01-07T01:26:25.737Z,4.6
2018-01-07T01:27:28.229Z,4.6
2018-01-07T01:28:30.720Z,4.6
2018-01-07T01:29:33.208Z,4.5
2018-01-07T01:30:35.695Z,4.5
2018-01-07T01:31:38.178Z,4.5
2018-01-07T01:32:40.658Z,4.5
2018-01-07T01:33:43.168Z,4.6
2018-01-07T01:34:45.654Z,4.6
2018-01-07T01:35:48.134Z,4.6
2018-01-07T01:36:50.912Z,4.6
2018-01-07T01:37:53.403Z,4.6
2018-01-07T01:38:55.900Z,4.6
2018-01-07T01:39:58.381Z,4.6
2018-01-07T01:41:01.149Z,4.6
2018-01-07T01:42:03.921Z,4.6
2018-01-07T01:43:06.426Z,4.5
2018-01-07T01:44:08.911Z,4.5
2018-01-07T01:45:11.702Z,4.5
2018-01-07T01:46:14.489Z,4.5
2018-01-07T01:47:16.979Z,4.5
2018-01-07T01:48:19.483Z,4.6
2018-01-07T01:49:21.971Z,4.6
2018-01-07T01:50:24.453Z,4.6
2018-01-07T01:51:27.234Z,4.6
2018-01-07T01:52:29.735Z,4.6
2018-01-07T01:53:32.220Z,4.6
2018-01-07T01:54:34.712Z,4.6
2018-01-07T01:55:37.186Z,4.6
2018-01-07T01:56:39.675Z,4.5
2018-01-07T01:57:42.186Z,4.5
2018-01-07T01:58:44.960Z,4.5
2018-01-07T01:59:47.454Z,4.7
2018-01-07T02:00:49.942Z,4.6
2018-01-07T02:01:52.435Z,4.6
2018-01-07T02:02:55.206Z,4.7
2018-01-07T02:03:57.690Z,4.6
2018-01-07T02:05:00.203Z,4.7
2018-01-07T02:06:02.976Z,4.6
2018-01-07T02:07:05.458Z,4.6
2018-01-07T02:08:08.260Z,4.6
2018-01-07T02:09:10.748Z,4.6
2018-01-07T02:10:13.818Z,4.6
2018-01-07T02:11:16.314Z,4.6
2018-01-07T02:12:18.786Z,4.6
2018-01-07T02:13:21.562Z,4.6
2018-01-07T02:14:24.064Z,4.5
2018-01-07T02:15:26.548Z,4.5
2018-01-07T02:16:29.036Z,4.5
2018-01-07T02:17:31.530Z,4.6
2018-01-07T02:18:34.015Z,4.6
2018-01-07T02:19:36.511Z,4.6
2018-01-07T02:20:39.002Z,4.6
2018-01-07T02:21:41.484Z,4.6
2018-01-07T02:22:43.978Z,4.5
2018-01-07T02:23:46.772Z,4.5
2018-01-07T02:24:49.556Z,4.6
2018-01-07T02:25:52.342Z,4.5
2018-01-07T02:26:55.121Z,4.6
2018-01-07T02:27:57.608Z,4.5
2018-01-07T02:29:00.386Z,4.5
2018-01-07T02:30:02.891Z,4.6
2018-01-07T02:31:05.374Z,4.5
2018-01-07T02:32:07.866Z,4.5
2018-01-07T02:33:10.361Z,4.6
2018-01-07T02:34:12.852Z,4.6
2018-01-07T02:35:15.342Z,4.6
2018-01-07T02:36:17.829Z,4.6
2018-01-07T02:37:20.334Z,4.6
2018-01-07T02:38:22.813Z,4.6
2018-01-07T02:39:25.319Z,4.5
2018-01-07T02:40:28.090Z,4.5
2018-01-07T02:41:30.891Z,4.5
2018-01-07T02:42:33.383Z,4.5
2018-01-07T02:43:35.874Z,4.5
2018-01-07T02:44:38.358Z,4.6
2018-01-07T02:45:40.856Z,4.7
2018-01-07T02:46:43.341Z,4.6
2018-01-07T02:47:46.133Z,4.6
2018-01-07T02:48:48.625Z,4.6
2018-01-07T02:49:51.100Z,4.5
2018-01-07T02:50:53.595Z,4.5
2018-01-07T02:51:56.095Z,4.5
2018-01-07T02:52:58.573Z,4.5
2018-01-07T02:54:01.366Z,4.5
2018-01-07T02:55:03.846Z,4.5
2018-01-07T02:56:06.326Z,4.5
2018-01-07T02:57:08.836Z,4.6
2018-01-07T02:58:11.330Z,4.6
2018-01-07T02:59:14.120Z,4.6
2018-01-07T03:00:16.890Z,4.6
2018-01-07T03:01:19.680Z,4.6
2018-01-07T03:02:22.442Z,4.6
2018-01-07T03:03:24.943Z,4.6
2018-01-07T03:04:27.438Z,4.6
2018-01-07T03:05:29.927Z,4.5
2018-01-07T03:06:32.416Z,4.6
2018-01-07T03:07:34.901Z,4.7
2018-01-07T03:08:37.388Z,4.5
2018-01-07T03:09:39.879Z,4.5
2018-01-07T03:10:42.362Z,4.5
2018-01-07T03:11:44.852Z,4.6
2018-01-07T03:12:47.630Z,4.5
2018-01-07T03:13:50.129Z,4.6
2018-01-07T03:14:52.623Z,4.6
2018-01-07T03:15:55.109Z,4.6
2018-01-07T03:16:57.764Z,4.6
2018-01-07T03:18:00.772Z,4.5
2018-01-07T03:19:03.261Z,4.6
2018-01-07T03:20:06.050Z,4.5
2018-01-07T03:21:08.542Z,4.5
2018-01-07T03:22:11.320Z,4.5
2018-01-07T03:23:13.821Z,4.5
2018-01-07T03:24:16.600Z,4.5
2018-01-07T03:25:19.091Z,4.5
2018-01-07T03:26:21.585Z,4.5
2018-01-07T03:27:24.069Z,4.5
2018-01-07T03:28:26.566Z,4.6
2018-01-07T03:29:29.059Z,4.6
2018-01-07T03:30:31.826Z,4.6
2018-01-07T03:31:35.326Z,4.6
2018-01-07T03:32:37.814Z,4.6
2018-01-07T03:33:40.336Z,4.6
2018-01-07T03:34:42.825Z,4.6
2018-01-07T03:35:45.348Z,4.6
2018-01-07T03:36:47.916Z,4.5
2018-01-07T03:37:50.495Z,4.5
2018-01-07T03:38:53.016Z,4.5
2018-01-07T03:39:55.833Z,4.5
2018-01-07T03:40:58.347Z,4.5
2018-01-07T03:42:01.142Z,4.5
2018-01-07T03:43:03.664Z,4.5
2018-01-07T03:44:06.704Z,4.5
2018-01-07T03:45:09.492Z,4.5
2018-01-07T03:46:11.978Z,4.5
2018-01-07T03:47:14.459Z,4.5
2018-01-07T03:48:16.969Z,4.5
2018-01-07T03:49:19.457Z,4.5
2018-01-07T03:50:21.972Z,4.5
2018-01-07T03:51:24.527Z,4.6
2018-01-07T03:52:27.048Z,4.5
2018-01-07T03:53:29.597Z,4.5
2018-01-07T03:54:32.120Z,4.6
2018-01-07T03:55:34.917Z,4.5
2018-01-07T03:56:37.794Z,4.5
2018-01-07T03:57:40.603Z,4.5
2018-01-07T03:58:43.474Z,4.5
2018-01-07T03:59:46.175Z,4.5
2018-01-07T04:00:48.704Z,4.5
2018-01-07T04:01:51.492Z,4.5
2018-01-07T04:02:54.012Z,4.5
2018-01-07T04:03:57.497Z,4.5
2018-01-07T04:05:00.331Z,4.5
2018-01-07T04:06:02.979Z,4.7
2018-01-07T04:07:05.865Z,4.5
2018-01-07T04:08:08.680Z,4.5
2018-01-07T04:09:11.419Z,4.5
2018-01-07T04:10:14.066Z,4.5
2018-01-07T04:11:17.391Z,4.5
2018-01-07T04:12:20.042Z,4.5
2018-01-07T04:13:22.870Z,4.5
2018-01-07T04:14:25.879Z,4.6
2018-01-07T04:15:28.537Z,4.6
2018-01-07T04:16:31.780Z,4.5
2018-01-07T04:17:34.522Z,4.6
2018-01-07T04:18:37.482Z,4.6
2018-01-07T04:19:40.308Z,4.6
2018-01-07T04:20:43.573Z,4.6
2018-01-07T04:21:46.504Z,4.6
2018-01-07T04:22:49.398Z,4.6
2018-01-07T04:23:52.635Z,4.6
2018-01-07T04:24:55.278Z,4.6
2018-01-07T04:25:57.976Z,4.5
2018-01-07T04:27:00.731Z,4.5
2018-01-07T04:28:04.006Z,4.5
2018-01-07T04:29:06.585Z,4.5
2018-01-07T04:30:09.366Z,4.5
2018-01-07T04:31:12.577Z,4.5
2018-01-07T04:32:15.326Z,4.5
2018-01-07T04:33:17.876Z,4.5
2018-01-07T04:34:20.678Z,4.6
2018-01-07T04:35:23.197Z,4.5
2018-01-07T04:36:25.754Z,4.5
2018-01-07T04:37:28.303Z,4.5
2018-01-07T04:38:30.828Z,4.5
2018-01-07T04:39:33.617Z,4.6
2018-01-07T04:40:36.157Z,4.6
2018-01-07T04:41:38.711Z,4.6
2018-01-07T04:42:41.496Z,4.5
2018-01-07T04:43:43.986Z,4.6
2018-01-07T04:44:46.564Z,4.6
2018-01-07T04:45:49.120Z,4.6
2018-01-07T04:46:51.645Z,4.6
2018-01-07T04:47:54.174Z,4.6
2018-01-07T04:48:56.978Z,4.5
2018-01-07T04:49:59.768Z,4.5
2018-01-07T04:51:02.253Z,4.5
2018-01-07T04:52:04.734Z,4.5
2018-01-07T04:53:07.237Z,4.5
2018-01-07T04:54:09.720Z,4.5
2018-01-07T04:55:12.508Z,4.5
2018-01-07T04:56:15.004Z,4.6
2018-01-07T04:57:17.491Z,4.6
2018-01-07T04:58:19.976Z,4.5
2018-01-07T04:59:22.464Z,4.6
2018-01-07T05:00:24.960Z,4.5
2018-01-07T05:01:27.436Z,4.5
2018-01-07T05:02:30.217Z,4.6
2018-01-07T05:03:32.705Z,4.5
2018-01-07T05:04:35.504Z,4.5
2018-01-07T05:05:38.008Z,4.5
2018-01-07T05:06:40.496Z,4.5
2018-01-07T05:07:43.270Z,4.5
2018-01-07T05:08:45.770Z,4.6
2018-01-07T05:09:48.258Z,4.6
2018-01-07T05:10:51.036Z,4.6
2018-01-07T05:11:53.523Z,4.5
2018-01-07T05:12:56.008Z,4.6
2018-01-07T05:13:58.497Z,4.5
2018-01-07T05:15:00.991Z,4.6
2018-01-07T05:16:03.798Z,4.5
2018-01-07T05:17:06.279Z,4.5
2018-01-07T05:18:09.063Z,4.6
2018-01-07T05:19:11.556Z,4.5
2018-01-07T05:20:14.034Z,4.5
2018-01-07T05:21:16.530Z,4.5
2018-01-07T05:22:19.023Z,4.5
2018-01-07T05:23:21.507Z,4.6
2018-01-07T05:24:24.296Z,4.6
2018-01-07T05:25:26.777Z,4.5
2018-01-07T05:26:29.263Z,4.6
2018-01-07T05:27:31.772Z,4.6
2018-01-07T05:28:34.247Z,4.5
2018-01-07T05:29:36.740Z,4.5
2018-01-07T05:30:39.805Z,4.5
2018-01-07T05:31:42.299Z,4.5
2018-01-07T05:32:44.773Z,4.5
2018-01-07T05:33:47.587Z,4.5
2018-01-07T05:34:50.081Z,4.5
2018-01-07T05:35:52.569Z,4.5
2018-01-07T05:36:55.056Z,4.5
2018-01-07T05:37:57.546Z,4.5
2018-01-07T05:39:00.313Z,4.6
2018-01-07T05:40:02.814Z,4.5
2018-01-07T05:41:05.297Z,4.6
2018-01-07T05:42:07.792Z,4.5
2018-01-07T05:43:10.275Z,4.5
2018-01-07T05:44:12.775Z,4.5
2018-01-07T05:45:15.572Z,4.5
2018-01-07T05:46:18.066Z,4.5
2018-01-07T05:47:20.553Z,4.5
2018-01-07T05:48:23.038Z,4.5
2018-01-07T05:49:25.525Z,4.5
2018-01-07T05:50:28.031Z,4.5
2018-01-07T05:51:30.502Z,4.6
2018-01-07T05:52:32.997Z,4.6
2018-01-07T05:53:35.472Z,4.5
2018-01-07T05:54:37.970Z,4.5
2018-01-07T05:55:40.455Z,4.5
2018-01-07T05:56:42.951Z,4.5
2018-01-07T05:57:45.432Z,4.5
2018-01-07T05:58:47.926Z,4.4
2018-01-07T05:59:50.413Z,4.5
2018-01-07T06:00:52.904Z,4.5
2018-01-07T06:01:55.389Z,4.6
2018-01-07T06:02:57.874Z,4.5
2018-01-07T06:04:00.658Z,4.6
2018-01-07T06:05:03.145Z,4.5
2018-01-07T06:06:05.650Z,4.5
2018-01-07T06:07:08.151Z,4.5
2018-01-07T06:08:10.630Z,4.5
2018-01-07T06:09:13.128Z,4.4
2018-01-07T06:10:15.913Z,4.5
2018-01-07T06:11:18.701Z,4.5
2018-01-07T06:12:21.191Z,4.4
2018-01-07T06:13:23.675Z,4.5
2018-01-07T06:14:26.446Z,4.5
2018-01-07T06:15:29.252Z,4.6
2018-01-07T06:16:31.733Z,4.5
2018-01-07T06:17:34.501Z,4.5
2018-01-07T06:18:37.000Z,4.5
2018-01-07T06:19:39.769Z,4.5
2018-01-07T06:20:42.547Z,4.5
2018-01-07T06:21:45.330Z,4.6
2018-01-07T06:22:47.806Z,4.5
2018-01-07T06:23:50.298Z,4.5
2018-01-07T06:24:52.784Z,4.5
2018-01-07T06:25:55.277Z,4.6
2018-01-07T06:26:57.766Z,4.5
2018-01-07T06:28:00.261Z,4.4
2018-01-07T06:29:03.044Z,4.5
2018-01-07T06:30:05.527Z,4.4
2018-01-07T06:31:08.014Z,4.4
2018-01-07T06:32:10.510Z,4.4
2018-01-07T06:33:12.995Z,4.6
2018-01-07T06:34:15.474Z,4.5
2018-01-07T06:35:18.253Z,4.5
2018-01-07T06:36:20.750Z,4.5
2018-01-07T06:37:23.239Z,4.6
2018-01-07T06:38:25.734Z,4.5
2018-01-07T06:39:28.225Z,4.5
2018-01-07T06:40:30.767Z,4.5
2018-01-07T06:41:33.274Z,4.4
2018-01-07T06:42:35.759Z,4.4
2018-01-07T06:43:38.518Z,4.5
2018-01-07T06:44:41.014Z,4.5
2018-01-07T06:45:43.504Z,4.5
2018-01-07T06:46:45.999Z,4.5
2018-01-07T06:47:48.502Z,4.6
2018-01-07T06:48:50.970Z,4.5
2018-01-07T06:49:53.466Z,4.5
2018-01-07T06:50:55.961Z,4.5
2018-01-07T06:51:58.445Z,4.5
2018-01-07T06:53:00.941Z,4.4
2018-01-07T06:54:03.431Z,4.5
2018-01-07T06:55:06.479Z,4.4
2018-01-07T06:56:08.982Z,4.5
2018-01-07T06:57:11.474Z,4.4
2018-01-07T06:58:13.948Z,4.5
2018-01-07T06:59:16.436Z,4.5
2018-01-07T07:00:18.939Z,4.5
2018-01-07T07:01:21.418Z,4.5
2018-01-07T07:02:23.898Z,4.5
2018-01-07T07:03:26.673Z,4.5
2018-01-07T07:04:29.160Z,4.5
2018-01-07T07:05:31.651Z,4.5
2018-01-07T07:06:34.442Z,4.5
2018-01-07T07:07:36.908Z,4.5
2018-01-07T07:08:39.413Z,4.4
2018-01-07T07:09:42.200Z,4.4
2018-01-07T07:10:44.706Z,4.5
2018-01-07T07:11:47.480Z,4.5
2018-01-07T07:12:50.260Z,4.5
2018-01-07T07:13:52.734Z,4.5
2018-01-07T07:14:55.237Z,4.5
2018-01-07T07:15:58.012Z,4.5
2018-01-07T07:17:00.794Z,4.5
2018-01-07T07:18:03.279Z,4.6
2018-01-07T07:19:05.764Z,4.5
2018-01-07T07:20:08.261Z,4.5
2018-01-07T07:21:10.750Z,4.5
2018-01-07T07:22:13.224Z,4.5
2018-01-07T07:23:15.712Z,4.5
2018-01-07T07:24:18.206Z,4.5
2018-01-07T07:25:20.696Z,4.5
2018-01-07T07:26:23.185Z,4.5
2018-01-07T07:27:25.966Z,4.5
2018-01-07T07:28:28.455Z,4.6
2018-01-07T07:29:30.943Z,4.5
2018-01-07T07:30:33.716Z,4.5
2018-01-07T07:31:36.216Z,4.5
2018-01-07T07:32:38.697Z,4.5
2018-01-07T07:33:41.188Z,4.5
2018-01-07T07:34:43.678Z,4.5
2018-01-07T07:35:46.175Z,4.5
2018-01-07T07:36:48.659Z,4.4
2018-01-07T07:37:51.154Z,4.4
2018-01-07T07:38:53.637Z,4.6
2018-01-07T07:39:56.128Z,4.5
2018-01-07T07:40:58.622Z,4.5
2018-01-07T07:42:01.116Z,4.5
2018-01-07T07:43:03.885Z,4.6
2018-01-07T07:44:06.662Z,4.5
2018-01-07T07:45:09.606Z,4.5
2018-01-07T07:46:12.117Z,4.5
2018-01-07T07:47:14.596Z,4.5
2018-01-07T07:48:17.082Z,4.5
2018-01-07T07:49:19.979Z,4.5
2018-01-07T07:50:22.468Z,4.5
2018-01-07T07:51:24.964Z,4.5
2018-01-07T07:52:27.460Z,4.4
2018-01-07T07:53:29.943Z,4.5
2018-01-07T07:54:32.742Z,4.5
2018-01-07T07:55:35.543Z,4.5
2018-01-07T07:56:38.031Z,4.4
2018-01-07T07:57:40.520Z,4.6
2018-01-07T07:58:43.295Z,4.5
2018-01-07T07:59:45.787Z,4.5
2018-01-07T08:00:48.286Z,4.5
2018-01-07T08:01:51.071Z,4.5
2018-01-07T08:02:53.562Z,4.5
2018-01-07T08:03:56.049Z,4.5
2018-01-07T08:04:58.549Z,4.5
2018-01-07T08:06:01.032Z,4.5
2018-01-07T08:07:03.519Z,4.4
2018-01-07T08:08:05.999Z,4.5
2018-01-07T08:09:08.491Z,4.5
2018-01-07T08:10:10.983Z,4.6
2018-01-07T08:11:13.476Z,4.5
2018-01-07T08:12:15.961Z,4.6
2018-01-07T08:13:18.455Z,4.6
2018-01-07T08:14:20.951Z,4.5
2018-01-07T08:15:23.438Z,4.5
2018-01-07T08:16:26.223Z,4.5
2018-01-07T08:17:28.712Z,4.6
2018-01-07T08:18:31.198Z,4.5
2018-01-07T08:19:33.712Z,4.5
2018-01-07T08:20:36.193Z,4.5
2018-01-07T08:21:39.258Z,4.6
2018-01-07T08:22:41.744Z,4.6
2018-01-07T08:23:44.233Z,4.5
2018-01-07T08:24:46.724Z,4.6
2018-01-07T08:25:49.554Z,4.5
2018-01-07T08:26:52.364Z,4.5
2018-01-07T08:27:54.856Z,4.7
2018-01-07T08:28:57.644Z,4.6
2018-01-07T08:30:00.148Z,4.6
2018-01-07T08:31:02.930Z,4.5
2018-01-07T08:32:05.418Z,4.5
2018-01-07T08:33:08.214Z,4.5
2018-01-07T08:34:10.707Z,4.5
2018-01-07T08:35:13.197Z,4.6
2018-01-07T08:36:15.685Z,4.5
2018-01-07T08:37:18.177Z,4.5
2018-01-07T08:38:20.976Z,4.5
2018-01-07T08:39:23.475Z,4.5
2018-01-07T08:40:26.242Z,4.5
2018-01-07T08:41:29.054Z,4.6
2018-01-07T08:42:31.548Z,4.5
2018-01-07T08:43:34.037Z,4.5
2018-01-07T08:44:36.519Z,4.6
2018-01-07T08:45:39.302Z,4.7
2018-01-07T08:46:41.791Z,4.6
2018-01-07T08:47:44.290Z,4.6
2018-01-07T08:48:46.785Z,4.6
2018-01-07T08:49:49.274Z,4.5
2018-01-07T08:50:51.771Z,4.5
2018-01-07T08:51:54.269Z,4.5
2018-01-07T08:52:56.762Z,4.5
2018-01-07T08:53:59.260Z,4.5
2018-01-07T08:55:01.740Z,4.7
2018-01-07T08:56:04.235Z,4.6
2018-01-07T08:57:07.024Z,4.6
2018-01-07T08:58:09.532Z,4.6
2018-01-07T08:59:12.031Z,4.7
2018-01-07T09:00:14.819Z,4.6
2018-01-07T09:01:17.318Z,4.6
2018-01-07T09:02:20.120Z,4.6
2018-01-07T09:03:22.601Z,4.7
2018-01-07T09:04:25.112Z,4.6
2018-01-07T09:05:27.598Z,4.5
2018-01-07T09:06:30.440Z,4.6
2018-01-07T09:07:32.930Z,4.5
2018-01-07T09:08:35.426Z,4.5
2018-01-07T09:09:37.914Z,4.6
2018-01-07T09:10:40.423Z,4.6
2018-01-07T09:11:42.900Z,4.6
2018-01-07T09:12:45.390Z,4.6
2018-01-07T09:13:47.878Z,4.5
2018-01-07T09:14:50.371Z,4.6
2018-01-07T09:15:52.869Z,4.5
2018-01-07T09:16:55.394Z,4.6
2018-01-07T09:17:57.883Z,4.5
2018-01-07T09:19:00.385Z,4.7
2018-01-07T09:20:03.035Z,4.6
2018-01-07T09:21:05.855Z,4.6
2018-01-07T09:22:08.810Z,4.7
2018-01-07T09:23:11.592Z,4.6
2018-01-07T09:24:14.082Z,4.6
2018-01-07T09:25:16.588Z,4.6
2018-01-07T09:26:19.067Z,4.6
2018-01-07T09:27:21.562Z,4.6
2018-01-07T09:28:24.073Z,4.6
2018-01-07T09:29:26.568Z,4.6
2018-01-07T09:30:29.043Z,4.6
2018-01-07T09:31:31.539Z,4.6
2018-01-07T09:32:34.032Z,4.6
2018-01-07T09:33:36.526Z,4.6
2018-01-07T09:34:39.316Z,4.7
2018-01-07T09:35:42.084Z,4.6
2018-01-07T09:36:44.578Z,4.7
2018-01-07T09:37:47.391Z,4.7
2018-01-07T09:38:49.883Z,4.7
2018-01-07T09:39:52.367Z,4.7
2018-01-07T09:40:54.865Z,4.7
2018-01-07T09:41:57.351Z,4.6
2018-01-07T09:42:59.856Z,4.6
2018-01-07T09:44:02.352Z,4.6
2018-01-07T09:45:04.838Z,4.6
2018-01-07T09:46:07.334Z,4.7
2018-01-07T09:47:09.823Z,4.7
2018-01-07T09:48:12.315Z,4.7
2018-01-07T09:49:14.818Z,4.9
2018-01-07T09:50:17.304Z,4.7
2018-01-07T09:51:19.792Z,4.7
2018-01-07T09:52:22.303Z,4.7
2018-01-07T09:53:24.790Z,4.6
2018-01-07T09:54:27.292Z,4.6
2018-01-07T09:55:29.790Z,4.6
2018-01-07T09:56:32.276Z,4.6
2018-01-07T09:57:35.085Z,4.7
2018-01-07T09:58:37.572Z,4.7
2018-01-07T09:59:40.084Z,4.7
2018-01-07T10:00:42.858Z,4.7
2018-01-07T10:01:45.364Z,4.7
2018-01-07T10:02:47.860Z,4.6
2018-01-07T10:03:50.345Z,4.7
2018-01-07T10:04:52.842Z,4.7
2018-01-07T10:05:55.920Z,4.6
2018-01-07T10:06:58.701Z,4.6
2018-01-07T10:08:01.210Z,4.6
2018-01-07T10:09:03.702Z,4.6
2018-01-07T10:10:06.784Z,4.6
2018-01-07T10:11:09.279Z,4.6
2018-01-07T10:12:12.073Z,4.6
2018-01-07T10:13:14.553Z,4.9
2018-01-07T10:14:17.345Z,4.7
2018-01-07T10:15:19.835Z,4.7
2018-01-07T10:16:22.345Z,4.7
2018-01-07T10:17:25.220Z,4.7
2018-01-07T10:18:27.732Z,4.7
2018-01-07T10:19:30.212Z,4.7
2018-01-07T10:20:32.723Z,4.7
2018-01-07T10:21:35.210Z,4.7
2018-01-07T10:22:37.996Z,4.7
2018-01-07T10:23:40.485Z,4.6
2018-01-07T10:24:42.987Z,4.7
2018-01-07T10:25:45.496Z,4.6
2018-01-07T10:26:47.999Z,4.7
2018-01-07T10:27:50.504Z,4.7
2018-01-07T10:28:52.995Z,4.7
2018-01-07T10:29:55.496Z,4.7
2018-01-07T10:30:57.990Z,4.7
2018-01-07T10:32:00.486Z,4.7
2018-01-07T10:33:02.982Z,4.7
2018-01-07T10:34:06.480Z,4.7
2018-01-07T10:35:10.288Z,4.8
2018-01-07T10:36:12.856Z,4.7
2018-01-07T10:37:15.354Z,4.8
2018-01-07T10:38:18.150Z,4.8
2018-01-07T10:39:20.927Z,4.8
2018-01-07T10:40:23.431Z,4.8
2018-01-07T10:41:26.203Z,4.7
2018-01-07T10:42:28.707Z,4.7
2018-01-07T10:43:31.194Z,4.7
2018-01-07T10:44:33.680Z,4.8
2018-01-07T10:45:36.178Z,4.7
2018-01-07T10:46:38.683Z,4.7
2018-01-07T10:47:41.470Z,4.8
2018-01-07T10:48:44.552Z,4.9
2018-01-07T10:49:47.048Z,4.8
2018-01-07T10:50:50.140Z,4.8
2018-01-07T10:51:52.649Z,4.9
2018-01-07T10:52:55.435Z,4.8
2018-01-07T10:53:57.915Z,4.8
2018-01-07T10:55:00.414Z,4.8
2018-01-07T10:56:02.904Z,4.8
2018-01-07T10:57:05.410Z,4.9
2018-01-07T10:58:07.894Z,4.9
2018-01-07T10:59:10.696Z,4.8
2018-01-07T11:00:13.189Z,4.8
2018-01-07T11:01:15.679Z,4.9
2018-01-07T11:02:18.473Z,4.8
2018-01-07T11:03:20.967Z,4.8
2018-01-07T11:04:23.466Z,4.9
2018-01-07T11:05:25.967Z,4.9
2018-01-07T11:06:28.746Z,4.9
2018-01-07T11:07:31.245Z,5
2018-01-07T11:08:33.756Z,4.9
2018-01-07T11:09:36.249Z,5
2018-01-07T11:10:38.741Z,4.9
2018-01-07T11:11:41.246Z,4.9
2018-01-07T11:12:43.742Z,4.9
2018-01-07T11:13:46.247Z,4.9
2018-01-07T11:14:48.740Z,4.9
2018-01-07T11:15:51.233Z,4.9
2018-01-07T11:16:53.738Z,4.9
2018-01-07T11:17:56.540Z,5
2018-01-07T11:18:59.040Z,5
2018-01-07T11:20:01.832Z,4.9
2018-01-07T11:21:04.335Z,4.9
2018-01-07T11:22:06.831Z,4.9
2018-01-07T11:23:09.326Z,4.9
2018-01-07T11:24:11.832Z,4.9
2018-01-07T11:25:14.313Z,4.9
2018-01-07T11:26:16.823Z,4.9
2018-01-07T11:27:19.324Z,5
2018-01-07T11:28:22.135Z,5
2018-01-07T11:29:24.925Z,5
2018-01-07T11:30:27.429Z,5
2018-01-07T11:31:29.934Z,5
2018-01-07T11:32:32.412Z,5
2018-01-07T11:33:34.929Z,5.2
2018-01-07T11:34:37.419Z,4.9
2018-01-07T11:35:39.916Z,5.1
2018-01-07T11:36:42.420Z,5.1
2018-01-07T11:37:44.916Z,5
2018-01-07T11:38:47.410Z,5.1
2018-01-07T11:39:49.926Z,5.1
2018-01-07T11:40:52.724Z,5
2018-01-07T11:41:55.237Z,5
2018-01-07T11:42:57.732Z,5.1
2018-01-07T11:44:00.237Z,5
2018-01-07T11:45:02.737Z,5.1
2018-01-07T11:46:05.243Z,5.1
2018-01-07T11:47:07.740Z,5.2
2018-01-07T11:48:10.245Z,5.2
2018-01-07T11:49:12.731Z,5.2
2018-01-07T11:50:15.236Z,5.1
2018-01-07T11:51:18.070Z,5.1
2018-01-07T11:52:20.860Z,5.1
2018-01-07T11:53:23.514Z,5.2
2018-01-07T11:54:25.857Z,5.1
2018-01-07T11:55:28.358Z,5.2
2018-01-07T11:56:30.871Z,5.2
2018-01-07T11:57:33.376Z,5.2
2018-01-07T11:58:35.870Z,5.3
2018-01-07T11:59:38.673Z,5.2
2018-01-07T12:00:41.177Z,5.1
2018-01-07T12:01:43.682Z,5.1
2018-01-07T12:02:46.183Z,5.1
2018-01-07T12:03:48.682Z,5.2
2018-01-07T12:04:51.186Z,5.3
2018-01-07T12:05:53.709Z,5.4
2018-01-07T12:06:56.800Z,5.2
2018-01-07T12:07:59.602Z,5.2
2018-01-07T12:09:02.702Z,5.2
2018-01-07T12:10:05.204Z,5.3
2018-01-07T12:11:08.285Z,5.3
2018-01-07T12:12:10.823Z,5.2
2018-01-07T12:13:13.327Z,5.2
2018-01-07T12:14:15.820Z,5.2
2018-01-07T12:15:18.340Z,5.1
2018-01-07T12:16:20.834Z,5.2
2018-01-07T12:17:23.622Z,5.3
2018-01-07T12:18:26.128Z,5.3
2018-01-07T12:19:28.920Z,5.3
2018-01-07T12:20:31.723Z,5.3
2018-01-07T12:21:34.519Z,5.2
2018-01-07T12:22:37.017Z,5.2
2018-01-07T12:23:39.531Z,5.3
2018-01-07T12:24:42.034Z,5.2
2018-01-07T12:25:44.545Z,5.3
2018-01-07T12:26:47.046Z,5.3
2018-01-07T12:27:49.844Z,5.2
2018-01-07T12:28:52.349Z,5.3
2018-01-07T12:29:55.135Z,5.3
2018-01-07T12:30:57.919Z,5.3
2018-01-07T12:32:00.746Z,5.2
2018-01-07T12:33:03.480Z,5.3
2018-01-07T12:34:05.988Z,5.3
2018-01-07T12:35:08.500Z,5.3
2018-01-07T12:36:11.306Z,5.2
2018-01-07T12:37:13.807Z,5.2
2018-01-07T12:38:16.322Z,5.2
2018-01-07T12:39:18.809Z,5.3
2018-01-07T12:40:22.365Z,5.3
2018-01-07T12:41:26.108Z,5.3
2018-01-07T12:42:28.991Z,5.3
2018-01-07T12:43:32.095Z,5.3
2018-01-07T12:44:34.607Z,5.2
2018-01-07T12:45:39.206Z,5.2
2018-01-07T12:46:42.863Z,5.2
2018-01-07T12:47:45.476Z,5.3
2018-01-07T12:48:47.998Z,5.2
2018-01-07T12:49:50.523Z,5.2
2018-01-07T12:50:53.286Z,5.2
2018-01-07T12:51:55.801Z,5.1
2018-01-07T12:52:58.894Z,5.1
2018-01-07T12:54:01.691Z,5.3
2018-01-07T12:55:04.482Z,5.3
2018-01-07T12:56:06.993Z,5.3
2018-01-07T12:57:09.495Z,5.1
2018-01-07T12:58:12.083Z,5.1
2018-01-07T12:59:14.872Z,5.2
2018-01-07T13:00:17.380Z,5.1
2018-01-07T13:01:20.077Z,5.1
2018-01-07T13:02:25.169Z,5.2
2018-01-07T13:03:31.412Z,5.2
2018-01-07T13:04:36.491Z,5.2
2018-01-07T13:05:45.737Z,5.2
2018-01-07T13:06:52.908Z,5.1
2018-01-07T13:07:55.711Z,5
2018-01-07T13:08:58.713Z,5
2018-01-07T13:10:01.680Z,5.1
2018-01-07T13:11:04.998Z,5.1
2018-01-07T13:12:08.366Z,5
2018-01-07T13:13:11.206Z,5
2018-01-07T13:14:16.337Z,4.9
2018-01-07T13:15:19.649Z,5
2018-01-07T13:16:22.950Z,5
2018-01-07T13:17:28.310Z,5
2018-01-07T13:18:35.275Z,5.1
2018-01-07T13:19:51.113Z,5.1
2018-01-07T13:20:56.990Z,5
2018-01-07T13:22:02.652Z,5
2018-01-07T13:23:10.997Z,5
2018-01-07T13:24:20.163Z,5
2018-01-07T13:25:30.571Z,5.1
2018-01-07T13:26:44.003Z,5.1
2018-01-07T13:27:48.413Z,5
2018-01-07T13:28:54.996Z,5.1
2018-01-07T13:30:00.115Z,5
2018-01-07T13:31:09.207Z,4.9
2018-01-07T13:32:18.733Z,5
2018-01-07T13:33:23.759Z,5
2018-01-07T13:34:27.503Z,4.9
2018-01-07T13:35:32.604Z,4.9
2018-01-07T13:36:36.641Z,4.9
2018-01-07T13:37:40.258Z,4.9
2018-01-07T13:38:44.749Z,4.9
2018-01-07T13:39:54.824Z,4.9
2018-01-07T13:41:04.740Z,4.9
2018-01-07T13:42:09.118Z,4.9
2018-01-07T13:43:12.879Z,4.9
2018-01-07T13:44:28.535Z,4.9
2018-01-07T13:45:31.158Z,4.8
2018-01-07T13:46:34.797Z,4.8
2018-01-07T13:47:39.994Z,4.8
2018-01-07T13:48:49.365Z,4.9
2018-01-07T13:49:54.377Z,4.9
2018-01-07T13:50:59.312Z,4.9
2018-01-07T13:52:03.126Z,4.8
2018-01-07T13:53:06.147Z,4.9
2018-01-07T13:54:10.609Z,4.9
2018-01-07T13:55:19.309Z,4.8
2018-01-07T13:56:26.235Z,4.8
2018-01-07T13:57:29.830Z,4.9
2018-01-07T13:58:39.717Z,4.7
2018-01-07T13:59:48.526Z,4.8
2018-01-07T14:00:55.213Z,4.8
2018-01-07T14:01:59.432Z,4.8
2018-01-07T14:03:01.991Z,4.7
2018-01-07T14:04:04.770Z,4.8
2018-01-07T14:05:07.265Z,4.8
2018-01-07T14:06:09.767Z,4.8
2018-01-07T14:07:12.276Z,4.8
2018-01-07T14:08:14.758Z,4.7
2018-01-07T14:09:17.554Z,4.7
2018-01-07T14:10:20.043Z,4.7
2018-01-07T14:11:22.544Z,4.7
2018-01-07T14:12:25.041Z,4.7
2018-01-07T14:13:27.520Z,4.8
2018-01-07T14:14:30.026Z,4.7
2018-01-07T14:15:32.525Z,4.8
2018-01-07T14:16:35.015Z,4.7
2018-01-07T14:17:37.510Z,4.7
2018-01-07T14:18:39.998Z,4.7
2018-01-07T14:19:42.803Z,4.6
2018-01-07T14:20:45.309Z,4.7
2018-01-07T14:21:47.800Z,4.6
2018-01-07T14:22:50.574Z,4.7
2018-01-07T14:23:53.367Z,4.8
2018-01-07T14:24:55.854Z,4.9
2018-01-07T14:25:58.369Z,4.8
2018-01-07T14:27:00.869Z,4.7
2018-01-07T14:28:03.398Z,4.6